Time;durP1;ratioP1;P1;durP2;ratioP2;P2;SDS_P1;SDS_P2;PMS_P1;PMS_P2;Temp;Humidity;BMP_temperature;BMP_pressure;BME280_temperature;BME280_humidity;BME280_pressure;Samples;Min_cycle;Max_cycle;Signal;HPM_P1;HPM_P2
2023/03/30 00:00:19;;;;;;;;;;;;;;;14.82;66.38;100174.94;1040604;28;654;-71
2023/03/30 00:01:10;;;;;;;;;;;;;;;14.80;66.38;100175.09;1040958;28;685;-71
2023/03/30 00:02:02;;;;;;;;;;;;;;;14.82;66.19;100172.25;1040979;28;732;-71
2023/03/30 00:02:53;;;;;;;;;;;;;;;14.82;66.05;100170.44;1040955;28;629;-71
2023/03/30 00:03:43;;;;;;;;;;;;;;;14.80;66.04;100168.88;1044394;28;1914;-71
2023/03/30 00:04:36;;;;;;;;;;;;;;;14.82;66.24;100166.91;1045143;28;688;-70
2023/03/30 00:05:27;;;;;;;;;;;;;;;14.81;66.30;100165.19;1043298;28;1168;-70
2023/03/30 00:06:21;;;;;;;;;;;;;;;14.79;66.45;100165.34;1045242;28;696;-71
2023/03/30 00:07:11;;;;;;;;;;;;;;;14.80;66.30;100158.16;1040670;28;665;-71
2023/03/30 00:08:02;;;;;;;;;;;;;;;14.80;65.82;100161.66;1041109;28;1427;-71
2023/03/30 00:08:55;;;;;;;;;;;;;;;14.80;66.25;100159.00;1040510;28;1163;-71
2023/03/30 00:09:46;;;;;;;;;;;;;;;14.82;65.79;100162.38;1044833;28;726;-71
2023/03/30 00:10:37;;;;;;;;;;;;;;;14.82;65.95;100161.53;1044502;28;1154;-72
2023/03/30 00:11:32;;;;;;;;;;;;;;;14.82;66.10;100153.47;1041172;28;677;-72
2023/03/30 00:12:23;;;;;;;;;;;;;;;14.81;66.26;100155.31;1043793;28;708;-71
2023/03/30 00:13:13;;;;;;;;;;;;;;;14.81;66.04;100162.53;1044525;28;1065;-72
2023/03/30 00:14:04;;;;;;;;;;;;;;;14.81;66.03;100149.09;1040581;28;1163;-72
2023/03/30 00:14:54;;;;;;;;;;;;;;;14.80;65.98;100156.31;1041605;28;637;-72
2023/03/30 00:15:45;;;;;;;;;;;;;;;14.81;66.03;100154.47;1040131;28;1103;-72
2023/03/30 00:16:35;;;;;;;;;;;;;;;14.82;65.85;100150.81;1045883;28;550;-72
2023/03/30 00:17:26;;;;;;;;;;;;;;;14.82;66.25;100156.16;1045426;28;1146;-72
2023/03/30 00:18:16;;;;;;;;;;;;;;;14.81;66.10;100149.09;1042841;28;1522;-72
2023/03/30 00:19:07;;;;;;;;;;;;;;;14.81;66.02;100149.97;1043919;28;1265;-72
2023/03/30 00:19:57;;;;;;;;;;;;;;;14.82;66.06;100148.97;1041899;28;585;-72
2023/03/30 00:20:47;;;;;;;;;;;;;;;14.81;66.33;100143.75;1043807;28;673;-71
2023/03/30 00:21:38;;;;;;;;;;;;;;;14.80;65.84;100150.09;1045422;28;587;-72
2023/03/30 00:22:28;;;;;;;;;;;;;;;14.81;66.04;100151.78;1044546;28;784;-72
2023/03/30 00:23:19;;;;;;;;;;;;;;;14.82;66.04;100145.44;1045356;28;1217;-71
2023/03/30 00:24:09;;;;;;;;;;;;;;;14.80;66.23;100148.25;1045872;28;757;-72
2023/03/30 00:25:00;;;;;;;;;;;;;;;14.80;65.98;100148.25;1043954;28;1151;-72
2023/03/30 00:25:50;;;;;;;;;;;;;;;14.81;66.22;100146.44;1044658;28;630;-72
2023/03/30 00:26:41;;;;;;;;;;;;;;;14.81;66.57;100151.78;1045280;28;1158;-71
2023/03/30 00:27:31;;;;;;;;;;;;;;;14.81;66.07;100159.84;1042397;28;637;-72
2023/03/30 00:28:22;;;;;;;;;;;;;;;14.80;66.03;100150.09;1041577;28;1550;-71
2023/03/30 00:29:12;;;;;;;;;;;;;;;14.80;66.17;100152.78;1042203;28;1542;-71
2023/03/30 00:30:03;;;;;;;;;;;;;;;14.80;66.35;100153.63;1041381;28;715;-71
2023/03/30 00:30:53;;;;;;;;;;;;;;;14.80;65.98;100150.09;1041395;28;669;-72
2023/03/30 00:31:43;;;;;;;;;;;;;;;14.80;66.11;100142.06;1045041;28;1329;-72
2023/03/30 00:32:34;;;;;;;;;;;;;;;14.79;66.05;100143.03;1045301;28;646;-72
2023/03/30 00:33:25;;;;;;;;;;;;;;;14.80;65.71;100147.41;1041585;28;653;-72
2023/03/30 00:34:15;;;;;;;;;;;;;;;14.80;66.08;100145.56;1045398;28;622;-72
2023/03/30 00:35:05;;;;;;;;;;;;;;;14.79;66.41;100141.19;1043320;28;673;-71
2023/03/30 00:35:56;;;;;;;;;;;;;;;14.79;66.04;100130.47;1045256;28;1103;-71
2023/03/30 00:36:47;;;;;;;;;;;;;;;14.79;66.11;100135.84;1045828;28;670;-71
2023/03/30 00:37:38;;;;;;;;;;;;;;;14.78;65.99;100128.78;1045300;28;1137;-71
2023/03/30 00:38:28;;;;;;;;;;;;;;;14.78;66.27;100128.78;1046019;28;689;-71
2023/03/30 00:39:21;;;;;;;;;;;;;;;14.78;65.99;100127.94;1045835;28;1147;-71
2023/03/30 00:40:12;;;;;;;;;;;;;;;14.80;66.12;100128.63;1044436;28;1394;-71
2023/03/30 00:41:02;;;;;;;;;;;;;;;14.79;66.42;100130.47;1045987;28;680;-71
2023/03/30 00:41:53;;;;;;;;;;;;;;;14.81;65.97;100133.00;1042245;28;1075;-71
2023/03/30 00:42:43;;;;;;;;;;;;;;;14.79;65.94;100129.63;1041804;28;637;-71
2023/03/30 00:43:33;;;;;;;;;;;;;;;14.80;65.99;100132.16;1041770;28;1973;-71
2023/03/30 00:44:24;;;;;;;;;;;;;;;14.79;66.16;100141.19;1041198;28;658;-71
2023/03/30 00:45:16;;;;;;;;;;;;;;;14.80;66.12;100142.06;1045317;28;638;-71
2023/03/30 00:46:06;;;;;;;;;;;;;;;14.80;66.13;100142.91;1045358;28;646;-72
2023/03/30 00:46:56;;;;;;;;;;;;;;;14.82;66.17;100148.97;1042330;28;1083;-72
2023/03/30 00:47:47;;;;;;;;;;;;;;;14.82;66.41;100157.00;1041049;28;724;-71
2023/03/30 00:48:39;;;;;;;;;;;;;;;14.83;66.47;100150.66;1045325;28;1032;-71
2023/03/30 00:49:30;;;;;;;;;;;;;;;14.82;65.93;100154.34;1042121;28;670;-72
2023/03/30 00:50:21;;;;;;;;;;;;;;;14.83;66.36;100147.97;1044234;28;1110;-72
2023/03/30 00:51:12;;;;;;;;;;;;;;;14.83;66.15;100145.28;1045843;28;634;-71
2023/03/30 00:52:03;;;;;;;;;;;;;;;14.83;66.44;100150.66;1043676;28;1236;-72
2023/03/30 00:52:53;;;;;;;;;;;;;;;14.83;66.13;100147.13;1044093;28;940;-72
2023/03/30 00:53:44;;;;;;;;;;;;;;;14.84;66.13;100148.81;1042395;28;661;-72
2023/03/30 00:54:35;;;;;;;;;;;;;;;14.83;66.24;100147.97;1044398;28;988;-72
2023/03/30 00:55:25;;;;;;;;;;;;;;;14.83;66.35;100152.50;1044922;28;1196;-70
2023/03/30 00:56:16;;;;;;;;;;;;;;;14.84;66.45;100144.31;1041148;28;657;-70
2023/03/30 00:57:06;;;;;;;;;;;;;;;14.83;65.93;100142.63;1041248;28;740;-70
2023/03/30 00:57:57;;;;;;;;;;;;;;;14.83;66.00;100141.78;1041777;28;724;-70
2023/03/30 00:58:48;;;;;;;;;;;;;;;14.82;66.27;100143.59;1042869;28;1103;-72
2023/03/30 00:59:38;;;;;;;;;;;;;;;14.82;66.33;100142.75;1041812;28;645;-69
2023/03/30 01:00:28;;;;;;;;;;;;;;;14.82;66.24;100135.56;1042087;28;680;-70
2023/03/30 01:01:24;;;;;;;;;;;;;;;14.83;66.03;100141.78;1040246;28;673;-69
2023/03/30 01:02:14;;;;;;;;;;;;;;;14.84;65.96;100133.59;1041933;28;722;-70
2023/03/30 01:03:05;;;;;;;;;;;;;;;14.85;65.91;100129.06;1044955;28;700;-70
2023/03/30 01:03:56;;;;;;;;;;;;;;;14.83;66.15;100133.72;1044530;28;1135;-72
2023/03/30 01:04:46;;;;;;;;;;;;;;;14.82;65.89;100124.81;1040094;28;658;-70
2023/03/30 01:05:37;;;;;;;;;;;;;;;14.84;66.08;100122.00;1042748;28;1307;-70
2023/03/30 01:06:28;;;;;;;;;;;;;;;14.82;66.24;100130.19;1045171;28;1169;-71
2023/03/30 01:07:23;;;;;;;;;;;;;;;14.83;66.05;100123.00;1045235;28;653;-71
2023/03/30 01:08:15;;;;;;;;;;;;;;;14.84;66.38;100120.16;1041894;28;721;-71
2023/03/30 01:09:05;;;;;;;;;;;;;;;14.85;66.27;100123.69;1041943;28;1558;-71
2023/03/30 01:09:56;;;;;;;;;;;;;;;14.84;66.38;100122.84;1044129;28;1458;-71
2023/03/30 01:10:46;;;;;;;;;;;;;;;14.83;66.05;100121.16;1045845;28;610;-71
2023/03/30 01:11:37;;;;;;;;;;;;;;;14.83;66.21;100121.16;1041235;28;653;-71
2023/03/30 01:12:28;;;;;;;;;;;;;;;14.84;66.12;100119.31;1041555;28;1047;-71
2023/03/30 01:13:19;;;;;;;;;;;;;;;14.84;66.01;100130.91;1040753;28;741;-71
2023/03/30 01:14:09;;;;;;;;;;;;;;;14.83;66.02;100121.16;1041521;28;1091;-71
2023/03/30 01:15:00;;;;;;;;;;;;;;;14.83;65.93;100110.44;1041668;28;909;-72
2023/03/30 01:15:50;;;;;;;;;;;;;;;14.84;65.92;100111.28;1042330;28;681;-71
2023/03/30 01:16:41;;;;;;;;;;;;;;;14.84;66.00;100106.75;1041283;28;1413;-71
2023/03/30 01:17:32;;;;;;;;;;;;;;;14.82;66.45;100108.72;1045473;28;708;-71
2023/03/30 01:18:22;;;;;;;;;;;;;;;14.82;65.92;100102.53;1044199;28;1077;-71
2023/03/30 01:19:15;;;;;;;;;;;;;;;14.81;66.28;100100.81;1044937;28;1162;-71
2023/03/30 01:20:08;;;;;;;;;;;;;;;14.81;66.12;100103.50;1043847;28;1356;-71
2023/03/30 01:20:58;;;;;;;;;;;;;;;14.82;66.32;100105.19;1041129;28;705;-71
2023/03/30 01:21:49;;;;;;;;;;;;;;;14.83;66.49;100112.25;1044536;28;746;-71
2023/03/30 01:22:39;;;;;;;;;;;;;;;14.81;66.14;100115.09;1045546;28;1162;-71
2023/03/30 01:23:29;;;;;;;;;;;;;;;14.83;66.46;100114.94;1042288;28;1985;-71
2023/03/30 01:24:20;;;;;;;;;;;;;;;14.83;66.49;100109.59;1041118;28;705;-71
2023/03/30 01:25:10;;;;;;;;;;;;;;;14.82;66.35;100106.06;1041639;28;638;-71
2023/03/30 01:26:01;;;;;;;;;;;;;;;14.80;66.20;100110.72;1041505;28;829;-71
2023/03/30 01:26:52;;;;;;;;;;;;;;;14.80;66.00;100118.75;1041078;28;1126;-70
2023/03/30 01:27:45;;;;;;;;;;;;;;;14.80;66.37;100108.03;1044478;28;633;-70
2023/03/30 01:28:35;;;;;;;;;;;;;;;14.80;66.30;100110.72;1041682;28;1347;-71
2023/03/30 01:29:26;;;;;;;;;;;;;;;14.82;65.99;100102.53;1044523;28;705;-71
2023/03/30 01:30:17;;;;;;;;;;;;;;;14.81;66.39;100103.50;1040512;28;1047;-71
2023/03/30 01:31:07;;;;;;;;;;;;;;;14.81;66.19;100106.19;1041838;28;673;-71
2023/03/30 01:32:00;;;;;;;;;;;;;;;14.82;66.64;100100.69;1044987;28;1150;-71
2023/03/30 01:32:51;;;;;;;;;;;;;;;14.80;66.18;100105.34;1045240;28;773;-71
2023/03/30 01:33:41;;;;;;;;;;;;;;;14.82;66.41;100103.38;1041691;28;638;-71
2023/03/30 01:34:32;;;;;;;;;;;;;;;14.82;66.52;100098.00;1044064;28;937;-71
2023/03/30 01:35:22;;;;;;;;;;;;;;;14.83;66.20;100093.47;1045544;28;717;-70
2023/03/30 01:36:13;;;;;;;;;;;;;;;14.80;66.67;100091.94;1041539;28;1062;-70
2023/03/30 01:37:03;;;;;;;;;;;;;;;14.81;66.34;100090.09;1041137;28;1095;-70
2023/03/30 01:37:54;;;;;;;;;;;;;;;14.81;66.53;100084.72;1042209;28;677;-70
2023/03/30 01:38:44;;;;;;;;;;;;;;;14.81;66.54;100090.09;1041000;28;1135;-71
2023/03/30 01:39:35;;;;;;;;;;;;;;;14.83;66.53;100104.22;1045350;28;1483;-71
2023/03/30 01:40:26;;;;;;;;;;;;;;;14.83;66.46;100096.16;1040371;28;1157;-71
2023/03/30 01:41:18;;;;;;;;;;;;;;;14.84;66.31;100098.72;1044854;28;644;-70
2023/03/30 01:42:09;;;;;;;;;;;;;;;14.84;66.41;100097.88;1044747;28;1223;-70
2023/03/30 01:43:00;;;;;;;;;;;;;;;14.84;66.17;100104.06;1040395;28;704;-71
2023/03/30 01:43:50;;;;;;;;;;;;;;;14.83;66.55;100094.34;1042270;28;2022;-71
2023/03/30 01:44:41;;;;;;;;;;;;;;;14.83;66.40;100088.97;1045604;28;1214;-71
2023/03/30 01:45:31;;;;;;;;;;;;;;;14.84;66.40;100089.81;1045567;28;760;-71
2023/03/30 01:46:23;;;;;;;;;;;;;;;14.85;66.74;100092.34;1045029;28;1127;-71
2023/03/30 01:47:15;;;;;;;;;;;;;;;14.84;66.68;100090.66;1045599;28;987;-71
2023/03/30 01:48:05;;;;;;;;;;;;;;;14.84;66.66;100084.44;1045093;28;652;-71
2023/03/30 01:48:56;;;;;;;;;;;;;;;14.83;66.51;100078.22;1045521;28;960;-71
2023/03/30 01:49:46;;;;;;;;;;;;;;;14.85;66.60;100076.25;1045214;28;625;-71
2023/03/30 01:50:37;;;;;;;;;;;;;;;14.85;66.67;100073.56;1045528;28;722;-71
2023/03/30 01:51:27;;;;;;;;;;;;;;;14.86;66.27;100071.75;1041615;28;644;-71
2023/03/30 01:52:18;;;;;;;;;;;;;;;14.84;66.53;100074.56;1041033;28;721;-71
2023/03/30 01:53:09;;;;;;;;;;;;;;;14.82;66.67;100068.50;1042373;28;1332;-71
2023/03/30 01:53:59;;;;;;;;;;;;;;;14.83;66.56;100061.28;1040977;28;653;-71
2023/03/30 01:54:50;;;;;;;;;;;;;;;14.84;66.67;100068.34;1043236;28;1151;-71
2023/03/30 01:55:40;;;;;;;;;;;;;;;14.84;66.34;100065.66;1042174;28;876;-71
2023/03/30 01:56:30;;;;;;;;;;;;;;;14.81;66.11;100068.63;1046218;28;613;-71
2023/03/30 01:57:21;;;;;;;;;;;;;;;14.81;66.56;100071.31;1042054;28;641;-71
2023/03/30 01:58:11;;;;;;;;;;;;;;;14.83;66.19;100077.38;1041000;28;1012;-71
2023/03/30 01:59:02;;;;;;;;;;;;;;;14.83;66.34;100069.34;1045176;28;728;-71
2023/03/30 01:59:52;;;;;;;;;;;;;;;14.83;66.49;100066.66;1044881;28;952;-71
2023/03/30 02:00:43;;;;;;;;;;;;;;;14.82;65.96;100063.13;1045717;28;668;-71
2023/03/30 02:01:33;;;;;;;;;;;;;;;14.82;66.28;100068.50;1045508;28;944;-71
2023/03/30 02:02:23;;;;;;;;;;;;;;;14.82;66.18;100071.19;1045580;28;673;-71
2023/03/30 02:03:15;;;;;;;;;;;;;;;14.82;65.96;100068.50;1045584;28;673;-71
2023/03/30 02:04:06;;;;;;;;;;;;;;;14.82;65.97;100065.81;1043610;28;1415;-71
2023/03/30 02:04:56;;;;;;;;;;;;;;;14.82;66.41;100070.34;1043208;28;995;-71
2023/03/30 02:05:47;;;;;;;;;;;;;;;14.82;65.95;100068.50;1044674;28;1591;-71
2023/03/30 02:06:37;;;;;;;;;;;;;;;14.82;66.31;100065.81;1041067;28;701;-71
2023/03/30 02:07:28;;;;;;;;;;;;;;;14.82;66.35;100060.44;1041428;28;1151;-71
2023/03/30 02:08:18;;;;;;;;;;;;;;;14.80;66.28;100062.44;1042073;28;654;-71
2023/03/30 02:09:09;;;;;;;;;;;;;;;14.80;66.06;100062.44;1041023;28;732;-71
2023/03/30 02:10:00;;;;;;;;;;;;;;;14.80;66.27;100062.44;1044396;28;618;-71
2023/03/30 02:10:50;;;;;;;;;;;;;;;14.80;66.14;100059.75;1044719;28;1087;-71
2023/03/30 02:11:41;;;;;;;;;;;;;;;14.81;66.40;100068.63;1042135;28;744;-71
2023/03/30 02:12:31;;;;;;;;;;;;;;;14.80;66.12;100064.25;1045423;28;1159;-71
2023/03/30 02:13:21;;;;;;;;;;;;;;;14.79;66.34;100060.72;1040636;28;645;-70
2023/03/30 02:14:12;;;;;;;;;;;;;;;14.79;66.31;100071.47;1042965;28;1115;-71
2023/03/30 02:15:03;;;;;;;;;;;;;;;14.80;66.33;100062.44;1045031;28;672;-70
2023/03/30 02:15:54;;;;;;;;;;;;;;;14.82;66.16;100067.66;1040837;28;1456;-70
2023/03/30 02:16:44;;;;;;;;;;;;;;;14.82;66.55;100065.81;1042879;28;1609;-70
2023/03/30 02:17:36;;;;;;;;;;;;;;;14.82;66.35;100065.81;1042007;28;682;-71
2023/03/30 02:18:27;;;;;;;;;;;;;;;14.79;66.64;100055.38;1043487;28;1185;-71
2023/03/30 02:19:17;;;;;;;;;;;;;;;14.80;66.17;100045.50;1045576;28;697;-70
2023/03/30 02:20:08;;;;;;;;;;;;;;;14.80;66.47;100051.69;1041554;28;692;-70
2023/03/30 02:21:00;;;;;;;;;;;;;;;14.80;66.15;100046.34;1043583;28;1083;-71
2023/03/30 02:21:51;;;;;;;;;;;;;;;14.80;66.69;100051.69;1045101;28;645;-71
2023/03/30 02:22:41;;;;;;;;;;;;;;;14.80;66.35;100040.13;1042054;28;696;-71
2023/03/30 02:23:32;;;;;;;;;;;;;;;14.81;66.27;100052.53;1041366;28;1979;-71
2023/03/30 02:24:23;;;;;;;;;;;;;;;14.82;66.38;100055.09;1041428;28;680;-70
2023/03/30 02:25:14;;;;;;;;;;;;;;;14.82;66.42;100051.56;1043882;28;681;-71
2023/03/30 02:26:06;;;;;;;;;;;;;;;14.81;66.26;100057.91;1043898;28;673;-71
2023/03/30 02:26:57;;;;;;;;;;;;;;;14.81;66.51;100063.28;1040962;28;781;-70
2023/03/30 02:27:47;;;;;;;;;;;;;;;14.80;66.41;100054.38;1042869;28;1511;-70
2023/03/30 02:28:38;;;;;;;;;;;;;;;14.80;66.38;100054.38;1043614;28;925;-72
2023/03/30 02:29:28;;;;;;;;;;;;;;;14.80;66.37;100061.59;1043461;28;1181;-71
2023/03/30 02:30:19;;;;;;;;;;;;;;;14.80;66.30;100062.44;1045532;28;717;-70
2023/03/30 02:31:09;;;;;;;;;;;;;;;14.81;66.32;100074.84;1044663;28;1154;-69
2023/03/30 02:32:00;;;;;;;;;;;;;;;14.82;66.24;100075.69;1045563;28;677;-70
2023/03/30 02:32:50;;;;;;;;;;;;;;;14.81;66.36;100076.69;1043698;28;638;-70
2023/03/30 02:33:41;;;;;;;;;;;;;;;14.79;66.31;100071.47;1043931;28;681;-71
2023/03/30 02:34:31;;;;;;;;;;;;;;;14.80;66.05;100075.00;1041982;28;720;-71
2023/03/30 02:35:22;;;;;;;;;;;;;;;14.81;66.00;100074.84;1043530;28;1004;-71
2023/03/30 02:36:12;;;;;;;;;;;;;;;14.81;66.02;100074.00;1045515;28;634;-71
2023/03/30 02:37:02;;;;;;;;;;;;;;;14.80;66.34;100072.31;1045269;28;1102;-70
2023/03/30 02:37:53;;;;;;;;;;;;;;;14.80;66.20;100077.69;1045460;28;732;-71
2023/03/30 02:38:45;;;;;;;;;;;;;;;14.79;66.11;100066.09;1045324;28;1164;-71
2023/03/30 02:39:35;;;;;;;;;;;;;;;14.79;66.30;100071.47;1045224;28;1674;-71
2023/03/30 02:40:26;;;;;;;;;;;;;;;14.79;66.12;100076.81;1045061;28;1078;-71
2023/03/30 02:41:16;;;;;;;;;;;;;;;14.79;66.56;100070.63;1042745;28;968;-71
2023/03/30 02:42:07;;;;;;;;;;;;;;;14.78;66.32;100069.78;1045563;28;645;-71
2023/03/30 02:42:58;;;;;;;;;;;;;;;14.78;66.67;100074.28;1045161;28;1166;-71
2023/03/30 02:43:49;;;;;;;;;;;;;;;14.78;66.71;100076.97;1041256;28;1902;-72
2023/03/30 02:44:39;;;;;;;;;;;;;;;14.79;66.65;100082.19;1041063;28;702;-71
2023/03/30 02:45:30;;;;;;;;;;;;;;;14.79;66.77;100074.16;1041442;28;662;-72
2023/03/30 02:46:20;;;;;;;;;;;;;;;14.80;66.75;100075.84;1043780;28;1146;-71
2023/03/30 02:47:11;;;;;;;;;;;;;;;14.80;66.72;100073.16;1044812;28;1126;-72
2023/03/30 02:48:01;;;;;;;;;;;;;;;14.82;66.34;100081.91;1045318;28;689;-71
2023/03/30 02:48:52;;;;;;;;;;;;;;;14.83;66.16;100070.19;1045216;28;1181;-71
2023/03/30 02:49:42;;;;;;;;;;;;;;;14.82;66.49;100079.22;1045427;28;709;-72
2023/03/30 02:50:32;;;;;;;;;;;;;;;14.82;66.43;100070.34;1044753;28;1190;-71
2023/03/30 02:51:23;;;;;;;;;;;;;;;14.81;66.37;100065.97;1045468;28;741;-71
2023/03/30 02:52:13;;;;;;;;;;;;;;;14.80;66.52;100075.00;1041172;28;637;-71
2023/03/30 02:53:05;;;;;;;;;;;;;;;14.79;66.50;100066.09;1044696;28;954;-71
2023/03/30 02:53:55;;;;;;;;;;;;;;;14.80;66.54;100067.78;1039982;28;1131;-71
2023/03/30 02:54:45;;;;;;;;;;;;;;;14.79;66.44;100063.41;1042930;28;1447;-71
2023/03/30 02:55:36;;;;;;;;;;;;;;;14.79;66.65;100059.88;1040589;28;1349;-72
2023/03/30 02:56:27;;;;;;;;;;;;;;;14.78;66.34;100059.03;1045627;28;642;-71
2023/03/30 02:57:18;;;;;;;;;;;;;;;14.80;66.89;100061.59;1044847;28;1171;-71
2023/03/30 02:58:08;;;;;;;;;;;;;;;14.80;66.51;100062.44;1041956;28;633;-71
2023/03/30 02:58:59;;;;;;;;;;;;;;;14.82;66.63;100067.66;1041306;28;669;-71
2023/03/30 02:59:49;;;;;;;;;;;;;;;14.82;66.62;100068.50;1040738;28;689;-71
2023/03/30 03:00:40;;;;;;;;;;;;;;;14.84;66.27;100063.00;1040873;28;1193;-71
2023/03/30 03:01:30;;;;;;;;;;;;;;;14.84;66.53;100063.00;1043734;28;693;-71
2023/03/30 03:02:21;;;;;;;;;;;;;;;14.84;66.47;100057.63;1044274;28;1189;-71
2023/03/30 03:03:11;;;;;;;;;;;;;;;14.83;66.62;100053.25;1044780;28;618;-71
2023/03/30 03:04:02;;;;;;;;;;;;;;;14.82;66.57;100063.13;1044784;28;1453;-71
2023/03/30 03:04:52;;;;;;;;;;;;;;;14.83;66.42;100058.63;1045207;28;633;-71
2023/03/30 03:05:43;;;;;;;;;;;;;;;14.83;66.66;100061.28;1043428;28;1075;-71
2023/03/30 03:06:34;;;;;;;;;;;;;;;14.83;66.36;100062.13;1043792;28;654;-71
2023/03/30 03:07:24;;;;;;;;;;;;;;;14.81;66.50;100056.06;1044321;28;716;-71
2023/03/30 03:08:15;;;;;;;;;;;;;;;14.83;66.31;100061.28;1044631;28;1102;-70
2023/03/30 03:09:05;;;;;;;;;;;;;;;14.82;66.27;100051.56;1045307;28;726;-71
2023/03/30 03:09:55;;;;;;;;;;;;;;;14.82;66.23;100054.25;1044792;28;650;-71
2023/03/30 03:10:46;;;;;;;;;;;;;;;14.79;66.36;100044.63;1044895;28;685;-71
2023/03/30 03:11:36;;;;;;;;;;;;;;;14.80;66.10;100050.84;1044515;28;1079;-71
2023/03/30 03:12:30;;;;;;;;;;;;;;;14.81;66.13;100048.03;1045491;28;645;-71
2023/03/30 03:13:23;;;;;;;;;;;;;;;14.80;66.59;100049.03;1041028;28;1023;-71
2023/03/30 03:14:13;;;;;;;;;;;;;;;14.80;66.50;100049.03;1041191;28;771;-71
2023/03/30 03:15:04;;;;;;;;;;;;;;;14.80;66.67;100048.16;1041331;28;728;-70
2023/03/30 03:15:55;;;;;;;;;;;;;;;14.80;66.47;100045.50;1043653;28;1578;-70
2023/03/30 03:16:46;;;;;;;;;;;;;;;14.80;66.25;100046.34;1041564;28;1321;-71
2023/03/30 03:17:37;;;;;;;;;;;;;;;14.79;66.56;100044.63;1041857;28;972;-71
2023/03/30 03:18:28;;;;;;;;;;;;;;;14.80;66.44;100040.13;1043079;28;685;-71
2023/03/30 03:19:18;;;;;;;;;;;;;;;14.78;66.05;100042.94;1041858;28;736;-71
2023/03/30 03:20:09;;;;;;;;;;;;;;;14.79;66.26;100043.78;1043013;28;960;-71
2023/03/30 03:21:00;;;;;;;;;;;;;;;14.80;66.40;100030.25;1044745;28;653;-71
2023/03/30 03:21:50;;;;;;;;;;;;;;;14.80;66.41;100030.25;1044630;28;948;-71
2023/03/30 03:22:41;;;;;;;;;;;;;;;14.80;66.48;100040.13;1045369;28;629;-71
2023/03/30 03:23:31;;;;;;;;;;;;;;;14.77;66.55;100030.53;1044954;28;1913;-71
2023/03/30 03:24:22;;;;;;;;;;;;;;;14.78;66.45;100032.22;1044782;28;731;-71
2023/03/30 03:25:12;;;;;;;;;;;;;;;14.78;66.27;100034.91;1044715;28;1043;-71
2023/03/30 03:26:02;;;;;;;;;;;;;;;14.78;65.95;100037.59;1045446;28;538;-71
2023/03/30 03:26:53;;;;;;;;;;;;;;;14.78;66.46;100036.75;1045256;28;1287;-72
2023/03/30 03:27:43;;;;;;;;;;;;;;;14.77;66.35;100035.88;1044618;28;1486;-72
2023/03/30 03:28:34;;;;;;;;;;;;;;;14.77;66.18;100035.03;1045181;28;1003;-72
2023/03/30 03:29:25;;;;;;;;;;;;;;;14.76;66.31;100036.88;1044767;28;519;-72
2023/03/30 03:30:16;;;;;;;;;;;;;;;14.76;66.13;100036.88;1041244;28;1095;-72
2023/03/30 03:31:06;;;;;;;;;;;;;;;14.77;66.32;100040.41;1041237;28;839;-72
2023/03/30 03:31:57;;;;;;;;;;;;;;;14.76;66.40;100033.34;1044603;28;1114;-72
2023/03/30 03:32:47;;;;;;;;;;;;;;;14.77;66.50;100037.72;1045248;28;908;-72
2023/03/30 03:33:38;;;;;;;;;;;;;;;14.77;66.32;100040.41;1044632;28;1083;-72
2023/03/30 03:34:32;;;;;;;;;;;;;;;14.77;66.64;100041.25;1045306;28;790;-71
2023/03/30 03:35:22;;;;;;;;;;;;;;;14.77;66.66;100038.56;1040010;28;696;-71
2023/03/30 03:36:13;;;;;;;;;;;;;;;14.76;66.43;100034.19;1043115;28;710;-71
2023/03/30 03:37:04;;;;;;;;;;;;;;;14.76;66.80;100031.53;1040235;28;638;-71
2023/03/30 03:37:54;;;;;;;;;;;;;;;14.77;66.58;100035.88;1043504;28;984;-71
2023/03/30 03:38:45;;;;;;;;;;;;;;;14.79;66.66;100035.75;1045412;28;677;-71
2023/03/30 03:39:36;;;;;;;;;;;;;;;14.79;66.27;100031.22;1040617;28;740;-71
2023/03/30 03:40:26;;;;;;;;;;;;;;;14.78;66.47;100026.84;1040349;28;1486;-71
2023/03/30 03:41:17;;;;;;;;;;;;;;;14.79;66.33;100019.66;1044212;28;1508;-71
2023/03/30 03:42:07;;;;;;;;;;;;;;;14.79;66.53;100025.88;1043959;28;1082;-71
2023/03/30 03:42:58;;;;;;;;;;;;;;;14.79;66.53;100020.50;1045413;28;1114;-70
2023/03/30 03:43:48;;;;;;;;;;;;;;;14.79;66.77;100017.81;1044427;28;1898;-70
2023/03/30 03:44:39;;;;;;;;;;;;;;;14.80;66.65;100015.97;1044315;28;1091;-71
2023/03/30 03:45:29;;;;;;;;;;;;;;;14.80;66.88;100007.94;1044207;28;716;-70
2023/03/30 03:46:20;;;;;;;;;;;;;;;14.80;66.32;100016.84;1044593;28;1263;-71
2023/03/30 03:47:12;;;;;;;;;;;;;;;14.79;66.44;100007.09;1045264;28;720;-71
2023/03/30 03:48:02;;;;;;;;;;;;;;;14.79;66.67;100012.47;1039973;28;626;-71
2023/03/30 03:48:53;;;;;;;;;;;;;;;14.79;66.46;100008.94;1041989;28;789;-70
2023/03/30 03:49:43;;;;;;;;;;;;;;;14.78;66.50;100004.56;1039906;28;618;-71
2023/03/30 03:50:34;;;;;;;;;;;;;;;14.77;66.44;100014.44;1043042;28;1119;-71
2023/03/30 03:51:24;;;;;;;;;;;;;;;14.79;66.65;100003.56;1044622;28;621;-72
2023/03/30 03:52:15;;;;;;;;;;;;;;;14.79;66.57;100009.78;1041396;28;1217;-71
2023/03/30 03:53:05;;;;;;;;;;;;;;;14.79;66.37;100014.28;1039984;28;693;-71
2023/03/30 03:53:56;;;;;;;;;;;;;;;14.79;66.46;100001.72;1043587;28;1078;-72
2023/03/30 03:54:46;;;;;;;;;;;;;;;14.79;66.64;100000.88;1045178;28;646;-71
2023/03/30 03:55:37;;;;;;;;;;;;;;;14.78;66.35;99992.00;1045358;28;1122;-71
2023/03/30 03:56:27;;;;;;;;;;;;;;;14.79;66.58;100003.56;1044576;28;650;-72
2023/03/30 03:57:17;;;;;;;;;;;;;;;14.78;66.24;99994.66;1042873;28;1083;-72
2023/03/30 03:58:08;;;;;;;;;;;;;;;14.80;66.50;99994.53;1045230;28;677;-70
2023/03/30 03:59:01;;;;;;;;;;;;;;;14.80;66.85;99999.88;1045054;28;1110;-71
2023/03/30 03:59:53;;;;;;;;;;;;;;;14.79;66.92;99993.69;1044465;28;1099;-71
2023/03/30 04:00:44;;;;;;;;;;;;;;;14.79;66.38;99990.16;1040574;28;654;-72
2023/03/30 04:01:35;;;;;;;;;;;;;;;14.78;66.27;99994.66;1041962;28;697;-71
2023/03/30 04:02:25;;;;;;;;;;;;;;;14.79;66.72;100007.09;1044788;28;1084;-71
2023/03/30 04:03:16;;;;;;;;;;;;;;;14.78;66.49;100004.56;1044318;28;683;-71
2023/03/30 04:04:06;;;;;;;;;;;;;;;14.77;66.47;99998.34;1042805;28;1495;-71
2023/03/30 04:04:57;;;;;;;;;;;;;;;14.77;66.43;99998.34;1043198;28;1352;-71
2023/03/30 04:05:47;;;;;;;;;;;;;;;14.77;66.57;100002.88;1040372;28;1134;-71
2023/03/30 04:06:37;;;;;;;;;;;;;;;14.77;66.24;99998.34;1044396;28;963;-71
2023/03/30 04:07:28;;;;;;;;;;;;;;;14.77;66.20;100008.22;1045218;28;711;-71
2023/03/30 04:08:18;;;;;;;;;;;;;;;14.77;66.25;100003.72;1041725;28;710;-71
2023/03/30 04:09:09;;;;;;;;;;;;;;;14.77;66.57;100009.06;1040983;28;871;-71
2023/03/30 04:09:59;;;;;;;;;;;;;;;14.77;66.38;100010.91;1041049;28;681;-71
2023/03/30 04:10:50;;;;;;;;;;;;;;;14.76;66.35;100006.53;1043637;28;661;-71
2023/03/30 04:11:40;;;;;;;;;;;;;;;14.76;66.76;100014.59;1041686;28;634;-71
2023/03/30 04:12:31;;;;;;;;;;;;;;;14.75;66.80;100011.06;1041063;28;653;-71
2023/03/30 04:13:21;;;;;;;;;;;;;;;14.75;66.52;100016.41;1040912;28;857;-71
2023/03/30 04:14:12;;;;;;;;;;;;;;;14.76;66.69;100007.38;1040407;28;638;-71
2023/03/30 04:15:02;;;;;;;;;;;;;;;14.77;66.69;100011.75;1040918;28;1088;-71
2023/03/30 04:15:52;;;;;;;;;;;;;;;14.77;66.36;100009.06;1041178;28;618;-71
2023/03/30 04:16:43;;;;;;;;;;;;;;;14.77;67.08;100006.38;1040475;28;1027;-71
2023/03/30 04:17:33;;;;;;;;;;;;;;;14.77;66.52;100011.75;1040427;28;702;-71
2023/03/30 04:18:32;;;;;;;;;;;;;;;14.78;66.65;100010.75;1041132;28;860;-72
2023/03/30 04:19:24;;;;;;;;;;;;;;;14.79;66.74;100008.94;1042224;28;767;-72
2023/03/30 04:20:14;;;;;;;;;;;;;;;14.78;66.65;100009.91;1043623;28;1130;-71
2023/03/30 04:21:06;;;;;;;;;;;;;;;14.78;66.32;100010.75;1045253;28;706;-71
2023/03/30 04:21:57;;;;;;;;;;;;;;;14.79;66.15;100014.28;1043059;28;1110;-71
2023/03/30 04:22:48;;;;;;;;;;;;;;;14.78;66.73;100009.91;1045221;28;625;-72
2023/03/30 04:23:44;;;;;;;;;;;;;;;14.77;66.02;100009.06;1044202;28;1914;-72
2023/03/30 04:24:35;;;;;;;;;;;;;;;14.76;66.52;100002.00;1039939;28;725;-72
2023/03/30 04:25:25;;;;;;;;;;;;;;;14.76;66.47;100010.06;1042970;28;1181;-72
2023/03/30 04:26:16;;;;;;;;;;;;;;;14.76;66.60;100012.75;1041652;28;634;-71